createdAt,value
2019-04-22T00:02:03.781Z,11286.2
2019-04-22T00:12:26.981Z,11286.2
2019-04-22T00:32:17.844Z,11286.3
2019-04-22T00:42:20.697Z,11286.3
2019-04-22T00:52:21.578Z,11286.4
2019-04-22T01:02:20.050Z,11286.4
2019-04-22T01:18:02.000Z,11286.4
2019-04-22T01:27:52.704Z,11286.4
2019-04-22T01:37:54.027Z,11286.5
2019-04-22T01:48:02.150Z,11286.5
2019-04-22T01:57:59.091Z,11286.6
2019-04-22T02:08:03.916Z,11286.6
2019-04-22T02:18:01.063Z,11286.7
2019-04-22T02:28:04.753Z,11286.7
2019-04-22T02:38:18.752Z,11286.7
2019-04-22T02:48:23.568Z,11286.7
2019-04-22T02:58:12.287Z,11286.8
2019-04-22T03:18:46.336Z,11286.8
2019-04-22T03:28:46.081Z,11286.8
2019-04-22T03:49:09.038Z,11286.9
2019-04-22T03:59:26.411Z,11286.8
2019-04-22T04:09:08.754Z,11286.9
2019-04-22T04:19:12.913Z,11286.9
2019-04-22T04:39:04.936Z,11286.9
2019-04-22T04:49:17.501Z,11286.9
2019-04-22T05:09:14.332Z,11287
2019-04-22T05:19:07.255Z,11287
2019-04-22T05:29:04.930Z,11287
2019-04-22T05:38:59.672Z,11287.1
2019-04-22T05:48:58.523Z,11287.1
2019-04-22T06:08:57.136Z,11287.1
2019-04-22T06:18:56.267Z,11287.1
2019-04-22T06:38:51.221Z,11287.2
2019-04-22T06:48:54.251Z,11287.2
2019-04-22T06:58:52.133Z,11287.2
2019-04-22T07:09:12.125Z,11287.2
2019-04-22T07:28:48.717Z,11287.3
2019-04-22T07:38:42.167Z,11287.3
2019-04-22T07:48:51.467Z,11287.3
2019-04-22T07:58:48.159Z,11287.3
2019-04-22T14:56:49.973Z,11287.3
2019-04-22T15:06:50.328Z,11287.3
2019-04-22T15:16:48.813Z,11287.3
2019-04-22T15:26:48.432Z,11287.4
2019-04-22T15:36:48.219Z,11287.4
2019-04-22T15:46:46.970Z,11287.4
2019-04-22T15:56:46.536Z,11287.5
2019-04-22T16:06:45.059Z,11287.5
2019-04-22T16:16:43.920Z,11287.5
2019-04-22T16:26:44.481Z,11287.5
2019-04-22T16:36:42.829Z,11287.6
2019-04-22T16:46:41.821Z,11287.6
2019-04-22T16:56:41.751Z,11287.6
2019-04-22T17:06:41.447Z,11287.7
2019-04-22T17:16:39.465Z,11287.7
2019-04-22T17:26:38.811Z,11287.7
2019-04-22T17:36:38.262Z,11287.8
2019-04-22T17:46:50.781Z,11287.8
2019-04-22T17:56:53.728Z,11287.8
2019-04-22T18:07:18.153Z,11287.8
2019-04-22T18:16:51.535Z,11287.8
2019-04-22T18:26:53.023Z,11287.9
2019-04-22T18:36:50.704Z,11287.9
2019-04-22T18:53:15.830Z,11287.8
2019-04-22T19:02:55.684Z,11287.8
2019-04-22T19:13:34.445Z,11287.9
2019-04-22T19:23:12.262Z,11287.9
2019-04-22T19:33:10.466Z,11287.9
2019-04-22T19:43:08.273Z,11287.9
2019-04-22T19:53:09.564Z,11288
2019-04-22T20:03:15.614Z,11288
2019-04-22T20:13:00.112Z,11288
2019-04-22T20:23:01.722Z,11288.1
2019-04-22T20:30:28.059Z,11288
2019-04-22T20:40:22.906Z,11288
2019-04-22T20:50:23.340Z,11288
2019-04-22T21:00:19.504Z,11288
2019-04-22T21:10:18.212Z,11288.1
2019-04-22T21:20:25.726Z,11288.1
2019-04-22T21:30:15.066Z,11288.1
2019-04-22T21:40:22.605Z,11288.2
2019-04-22T21:50:34.958Z,11288.2
2019-04-22T22:00:30.897Z,11288.2
2019-04-22T22:10:14.739Z,11288.3
2019-04-22T22:20:09.539Z,11288.3
2019-04-22T22:30:36.703Z,11288.3
2019-04-22T22:40:03.330Z,11288.4
2019-04-22T22:50:15.698Z,11288.4
2019-04-22T23:00:10.674Z,11288.4
2019-04-22T23:10:11.092Z,11288.5
2019-04-22T23:19:54.659Z,11288.5
2019-04-22T23:29:59.593Z,11288.6
2019-04-22T23:40:15.392Z,11288.6
2019-04-22T23:50:07.178Z,11288.7
